Time;durP1;ratioP1;P1;durP2;ratioP2;P2;SDS_P1;SDS_P2;PMS_P1;PMS_P2;Temp;Humidity;BMP_temperature;BMP_pressure;BME280_temperature;BME280_humidity;BME280_pressure;Samples;Min_cycle;Max_cycle;Signal;HPM_P1;HPM_P2
2021/03/01 00:01:18;;;;;;;14.45;5.60;;;5.60;99.90;;;;;;5000046;28;20036;-78
2021/03/01 00:03:44;;;;;;;11.38;5.43;;;5.50;99.90;;;;;;5003187;28;20118;-78
2021/03/01 00:06:10;;;;;;;12.95;5.97;;;5.60;99.90;;;;;;4990601;28;20433;-78
2021/03/01 00:08:35;;;;;;;13.30;5.75;;;5.70;99.90;;;;;;4989742;28;20053;-78
2021/03/01 00:11:01;;;;;;;11.93;4.68;;;5.80;99.90;;;;;;4991680;28;20040;-78
2021/03/01 00:13:26;;;;;;;14.65;5.55;;;5.70;99.90;;;;;;4992526;28;20042;-78
2021/03/01 00:15:52;;;;;;;9.77;5.28;;;5.70;99.90;;;;;;4991926;28;20061;-78
2021/03/01 00:18:18;;;;;;;10.65;4.88;;;5.70;99.90;;;;;;4993649;28;20846;-78
2021/03/01 00:20:44;;;;;;;15.82;5.53;;;5.70;99.90;;;;;;4995293;28;20029;-78
2021/03/01 00:23:10;;;;;;;11.00;5.30;;;5.70;99.90;;;;;;4991474;28;20031;-78
2021/03/01 00:25:41;;;;;;;10.25;4.70;;;5.80;99.90;;;;;;4990123;28;20436;-78
2021/03/01 00:28:07;;;;;;;13.18;5.53;;;5.80;99.90;;;;;;4978485;28;20037;-78
2021/03/01 00:30:33;;;;;;;13.30;5.70;;;5.80;99.90;;;;;;4990806;28;20061;-78
2021/03/01 00:32:58;;;;;;;10.43;5.28;;;5.80;99.90;;;;;;4990269;28;20501;-78
2021/03/01 00:35:27;;;;;;;11.85;5.03;;;5.80;99.90;;;;;;4992028;28;20115;-79
2021/03/01 00:37:52;;;;;;;13.27;5.53;;;5.90;99.90;;;;;;4995158;28;20120;-78
2021/03/01 00:40:18;;;;;;;13.07;6.40;;;5.90;99.90;;;;;;4992604;28;20109;-78
2021/03/01 00:42:44;;;;;;;14.30;5.95;;;5.90;99.90;;;;;;4974231;28;20054;-78
2021/03/01 00:45:11;;;;;;;12.48;6.20;;;5.80;99.90;;;;;;4988433;28;20029;-78
2021/03/01 00:47:37;;;;;;;12.80;6.25;;;6.00;99.90;;;;;;4996792;28;20033;-78
2021/03/01 00:50:04;;;;;;;12.88;6.05;;;5.90;99.90;;;;;;4990456;28;20110;-78
2021/03/01 00:52:30;;;;;;;12.07;5.60;;;6.00;99.90;;;;;;4990136;28;20054;-79
2021/03/01 00:54:55;;;;;;;10.57;5.05;;;6.00;99.90;;;;;;4989839;28;20034;-78
2021/03/01 00:57:20;;;;;;;17.38;6.43;;;6.00;99.90;;;;;;4990922;28;20034;-79
2021/03/01 00:59:46;;;;;;;12.57;6.00;;;6.00;99.90;;;;;;4993506;28;20116;-78
2021/03/01 01:02:11;;;;;;;10.80;5.43;;;6.00;99.90;;;;;;4988457;28;20035;-79
2021/03/01 01:04:37;;;;;;;12.77;6.15;;;6.00;99.90;;;;;;4991727;28;20037;-78
2021/03/01 01:07:02;;;;;;;12.18;5.57;;;6.00;99.90;;;;;;4987816;28;20044;-78
2021/03/01 01:09:28;;;;;;;12.88;5.43;;;6.10;99.90;;;;;;4989742;28;20018;-78
2021/03/01 01:11:53;;;;;;;13.05;5.28;;;6.10;99.90;;;;;;4990194;28;20030;-78
2021/03/01 01:14:19;;;;;;;16.40;6.20;;;6.10;99.90;;;;;;4993480;28;20061;-78
2021/03/01 01:16:44;;;;;;;18.98;6.03;;;6.10;99.90;;;;;;4990770;28;20030;-78
2021/03/01 01:19:10;;;;;;;13.40;5.68;;;6.10;99.90;;;;;;4990771;28;20030;-78
2021/03/01 01:21:35;;;;;;;15.55;6.10;;;6.20;99.90;;;;;;4993477;28;20191;-79
2021/03/01 01:24:02;;;;;;;11.73;5.40;;;6.10;99.90;;;;;;4990455;28;20030;-78
2021/03/01 01:26:28;;;;;;;10.82;5.05;;;6.10;99.90;;;;;;4988375;28;20034;-78
2021/03/01 01:28:53;;;;;;;11.10;5.65;;;6.10;99.90;;;;;;4988520;28;20373;-80
2021/03/01 01:31:19;;;;;;;13.23;4.97;;;6.10;99.90;;;;;;4992688;28;20072;-78
2021/03/01 01:33:44;;;;;;;15.30;5.50;;;6.10;99.90;;;;;;4989862;28;20026;-78
2021/03/01 01:36:10;;;;;;;11.75;5.65;;;6.20;99.90;;;;;;4992721;28;20712;-78
2021/03/01 01:38:35;;;;;;;10.85;5.00;;;6.10;99.90;;;;;;4992009;28;20038;-79
2021/03/01 01:41:01;;;;;;;10.88;5.30;;;6.10;99.90;;;;;;4990888;28;20072;-78
2021/03/01 01:43:26;;;;;;;13.80;5.18;;;6.10;99.90;;;;;;4988677;28;20026;-78
2021/03/01 01:45:52;;;;;;;14.82;5.93;;;6.10;99.90;;;;;;4987752;28;20057;-78
2021/03/01 01:48:17;;;;;;;13.77;5.72;;;6.10;99.90;;;;;;4989607;28;20547;-79
2021/03/01 01:50:43;;;;;;;12.38;5.25;;;6.10;99.90;;;;;;4992004;28;20026;-78
2021/03/01 01:53:08;;;;;;;13.43;6.20;;;6.10;99.90;;;;;;4971844;28;20050;-78
2021/03/01 01:55:34;;;;;;;13.38;6.22;;;6.00;99.90;;;;;;4991270;28;20049;-78
2021/03/01 01:57:59;;;;;;;12.10;6.03;;;6.00;99.90;;;;;;4991601;28;20018;-78
2021/03/01 02:03:33;;;;;;;12.30;6.50;;;6.10;99.90;;;;;;4998585;28;20457;-78
2021/03/01 02:06:24;;;;;;;13.48;6.57;;;6.10;99.90;;;;;;4985564;28;20085;-78
2021/03/01 02:09:17;;;;;;;13.63;5.53;;;6.00;99.90;;;;;;4950622;28;20034;-78
2021/03/01 02:11:48;;;;;;;13.95;5.65;;;5.90;99.90;;;;;;4989818;28;20042;-78
2021/03/01 02:14:21;;;;;;;13.90;6.13;;;5.90;99.90;;;;;;4988442;28;20035;-78
2021/03/01 02:16:47;;;;;;;13.95;5.88;;;5.90;99.90;;;;;;4993491;28;20026;-78
2021/03/01 02:19:14;;;;;;;15.45;6.63;;;5.90;99.90;;;;;;4970791;28;20431;-78
2021/03/01 02:21:46;;;;;;;14.30;6.93;;;6.00;99.90;;;;;;4988232;28;20048;-78
2021/03/01 02:24:16;;;;;;;16.48;6.05;;;5.90;99.90;;;;;;4991336;28;20041;-78
2021/03/01 02:26:45;;;;;;;14.55;6.15;;;5.90;99.90;;;;;;4989095;28;20030;-78
2021/03/01 02:29:14;;;;;;;13.05;6.22;;;5.90;99.90;;;;;;4987681;28;20508;-78
2021/03/01 02:31:44;;;;;;;14.88;5.88;;;5.90;99.90;;;;;;4987559;28;20535;-78
2021/03/01 02:34:12;;;;;;;14.63;6.00;;;5.90;99.90;;;;;;4985152;28;20101;-78
2021/03/01 02:36:47;;;;;;;12.75;6.05;;;5.90;99.90;;;;;;4991896;28;20018;-78
2021/03/01 02:39:16;;;;;;;11.85;5.28;;;5.70;99.90;;;;;;4989909;28;20018;-78
2021/03/01 02:41:43;;;;;;;10.18;5.65;;;5.80;99.90;;;;;;4988216;28;20408;-78
2021/03/01 02:44:09;;;;;;;12.25;5.93;;;5.90;99.90;;;;;;4990205;28;20126;-78
2021/03/01 02:46:36;;;;;;;15.13;5.88;;;5.90;99.90;;;;;;4987846;28;20110;-78
2021/03/01 02:49:05;;;;;;;14.07;6.97;;;5.90;99.90;;;;;;4987335;28;20113;-78
2021/03/01 02:51:31;;;;;;;13.52;6.13;;;5.90;99.90;;;;;;4986842;28;20023;-78
2021/03/01 02:53:58;;;;;;;17.98;6.63;;;5.90;99.90;;;;;;4992367;28;20046;-79
2021/03/01 02:56:25;;;;;;;15.02;6.40;;;5.80;99.90;;;;;;4973327;28;20030;-78
2021/03/01 02:58:51;;;;;;;11.57;6.50;;;5.80;99.90;;;;;;4988300;28;20050;-78
2021/03/01 03:01:18;;;;;;;16.40;6.85;;;5.90;99.90;;;;;;4987648;28;20461;-78
2021/03/01 03:03:46;;;;;;;13.65;6.47;;;5.90;99.90;;;;;;4988788;28;20109;-78
2021/03/01 03:06:15;;;;;;;15.40;6.43;;;5.80;99.90;;;;;;4969596;28;20026;-79
2021/03/01 03:08:42;;;;;;;14.48;6.32;;;5.90;99.90;;;;;;4991253;28;20066;-79
2021/03/01 03:11:09;;;;;;;13.93;6.28;;;6.00;99.90;;;;;;4994714;28;20036;-79
2021/03/01 03:13:36;;;;;;;14.32;5.97;;;5.90;99.90;;;;;;4990987;28;20037;-78
2021/03/01 03:16:02;;;;;;;17.48;6.20;;;5.90;99.90;;;;;;4993498;28;20444;-79
2021/03/01 03:18:28;;;;;;;15.45;6.00;;;6.00;99.90;;;;;;4974765;28;20070;-79
2021/03/01 03:20:56;;;;;;;15.35;7.05;;;6.00;99.90;;;;;;4993649;28;20034;-78
2021/03/01 03:23:21;;;;;;;18.50;7.28;;;5.90;99.90;;;;;;4997524;28;20846;-78
2021/03/01 03:25:47;;;;;;;15.85;7.22;;;6.00;99.90;;;;;;4999346;28;20062;-78
2021/03/01 03:28:13;;;;;;;14.20;6.38;;;5.80;99.90;;;;;;4995645;28;20105;-78
2021/03/01 03:30:38;;;;;;;16.30;6.95;;;5.80;99.90;;;;;;4990431;28;20499;-78
2021/03/01 03:33:04;;;;;;;17.92;7.78;;;5.90;99.90;;;;;;4991361;28;20022;-79
2021/03/01 03:35:30;;;;;;;12.40;6.15;;;5.90;99.90;;;;;;4996004;28;20064;-79
2021/03/01 03:38:16;;;;;;;17.60;7.30;;;5.90;99.90;;;;;;4994678;28;20050;-79
2021/03/01 03:40:46;;;;;;;19.63;6.95;;;5.90;99.90;;;;;;4993185;28;20046;-79
2021/03/01 03:43:13;;;;;;;19.52;7.30;;;6.00;99.90;;;;;;5002280;28;20030;-79
2021/03/01 03:45:40;;;;;;;16.42;6.68;;;6.00;99.90;;;;;;4986209;28;20113;-79
2021/03/01 03:48:06;;;;;;;14.98;7.38;;;5.80;99.90;;;;;;4999733;28;20073;-78
2021/03/01 03:50:33;;;;;;;14.35;6.57;;;5.90;99.90;;;;;;4996611;28;20100;-78
2021/03/01 03:53:04;;;;;;;15.70;6.85;;;5.90;99.90;;;;;;4997583;28;20070;-79
2021/03/01 03:55:32;;;;;;;17.75;6.90;;;6.00;99.90;;;;;;4993513;28;20451;-78
2021/03/01 03:58:00;;;;;;;15.93;7.10;;;5.90;99.90;;;;;;4990803;28;20035;-78
2021/03/01 04:00:32;;;;;;;14.93;7.60;;;6.00;99.90;;;;;;4997919;28;20484;-78
2021/03/01 04:03:00;;;;;;;16.08;7.05;;;6.00;99.90;;;;;;4990818;28;20034;-78
2021/03/01 04:05:28;;;;;;;17.02;6.97;;;6.10;99.90;;;;;;4990441;28;20113;-79
2021/03/01 04:07:55;;;;;;;15.23;7.60;;;6.10;99.90;;;;;;4993810;28;20054;-78
2021/03/01 04:10:22;;;;;;;16.17;7.32;;;6.00;99.90;;;;;;4990328;28;20435;-78
2021/03/01 04:12:51;;;;;;;15.73;7.28;;;6.00;99.90;;;;;;4990673;28;20031;-78
2021/03/01 04:15:18;;;;;;;17.60;7.60;;;6.00;99.90;;;;;;4993212;28;20033;-78
2021/03/01 04:17:45;;;;;;;19.63;7.63;;;6.00;99.90;;;;;;4992812;28;20026;-78
2021/03/01 04:20:14;;;;;;;15.75;7.18;;;6.00;99.90;;;;;;4993265;28;20497;-78
2021/03/01 04:22:40;;;;;;;16.02;7.28;;;6.10;99.90;;;;;;4990541;28;20742;-79
2021/03/01 04:25:07;;;;;;;14.43;7.50;;;6.10;99.90;;;;;;4986763;28;20250;-79
2021/03/01 04:27:37;;;;;;;17.50;7.15;;;6.00;99.90;;;;;;4995804;28;20683;-79
2021/03/01 04:30:11;;;;;;;18.75;7.13;;;6.00;99.90;;;;;;4990303;28;20031;-79
2021/03/01 04:32:40;;;;;;;19.02;7.88;;;6.00;99.90;;;;;;4994661;28;20043;-78
2021/03/01 04:35:07;;;;;;;19.20;7.13;;;6.00;99.90;;;;;;4993625;28;20088;-78
2021/03/01 04:37:33;;;;;;;19.08;7.50;;;6.10;99.90;;;;;;4997425;28;20053;-78
2021/03/01 04:39:59;;;;;;;14.75;7.60;;;6.00;99.90;;;;;;4973628;28;20026;-78
2021/03/01 04:42:27;;;;;;;17.33;7.10;;;6.00;99.90;;;;;;4989888;28;20078;-79
2021/03/01 04:44:54;;;;;;;18.05;7.38;;;6.00;99.90;;;;;;4990390;28;20065;-78
2021/03/01 04:47:20;;;;;;;19.40;8.05;;;5.90;99.90;;;;;;4989676;28;20350;-79
2021/03/01 04:49:45;;;;;;;20.30;7.20;;;5.90;99.90;;;;;;4990653;28;20030;-78
2021/03/01 04:52:14;;;;;;;18.80;8.15;;;6.00;99.90;;;;;;4990455;28;20038;-79
2021/03/01 04:54:40;;;;;;;20.90;7.55;;;6.10;99.90;;;;;;4991893;28;20034;-78
2021/03/01 04:57:08;;;;;;;16.75;7.93;;;6.10;99.90;;;;;;4989609;28;20031;-78
2021/03/01 04:59:34;;;;;;;17.73;7.50;;;6.10;99.90;;;;;;4990302;28;20077;-78
2021/03/01 05:02:00;;;;;;;16.92;7.85;;;6.10;99.90;;;;;;4989351;28;20153;-78
2021/03/01 05:04:26;;;;;;;16.40;7.93;;;6.00;99.90;;;;;;4989890;28;20042;-78
2021/03/01 05:06:55;;;;;;;17.10;7.82;;;6.10;99.90;;;;;;4988857;28;20085;-78
2021/03/01 05:09:20;;;;;;;17.10;7.38;;;6.10;99.90;;;;;;4986379;28;20114;-78
2021/03/01 05:11:46;;;;;;;19.20;8.18;;;6.00;99.90;;;;;;4989435;28;20032;-78
2021/03/01 05:14:11;;;;;;;18.63;8.02;;;6.10;99.90;;;;;;4989899;28;20034;-78
2021/03/01 05:16:37;;;;;;;16.70;7.65;;;6.10;99.90;;;;;;4989402;28;20029;-78
2021/03/01 05:19:02;;;;;;;20.38;8.35;;;6.10;99.90;;;;;;4987261;28;20089;-78
2021/03/01 05:21:28;;;;;;;19.23;8.35;;;5.90;99.90;;;;;;4993296;28;20033;-78
2021/03/01 05:23:54;;;;;;;22.83;7.68;;;6.00;99.90;;;;;;4998339;28;20114;-79
2021/03/01 05:26:19;;;;;;;19.80;8.00;;;6.00;99.90;;;;;;4989177;28;20030;-78
2021/03/01 05:28:46;;;;;;;18.23;7.75;;;6.00;99.90;;;;;;4989430;28;20030;-79
2021/03/01 05:31:12;;;;;;;17.88;8.10;;;6.00;99.90;;;;;;4988073;28;20492;-79
2021/03/01 05:33:38;;;;;;;19.02;7.50;;;6.10;99.90;;;;;;4972002;28;20160;-78
2021/03/01 05:36:04;;;;;;;15.77;7.70;;;6.10;99.90;;;;;;4989253;28;20026;-79
2021/03/01 05:38:30;;;;;;;18.85;7.90;;;6.20;99.90;;;;;;4994794;28;20113;-78
2021/03/01 05:40:56;;;;;;;16.35;7.63;;;6.20;99.90;;;;;;4990559;28;20541;-79
2021/03/01 05:43:25;;;;;;;24.17;7.55;;;6.10;99.90;;;;;;4989926;28;20492;-79
2021/03/01 05:45:51;;;;;;;19.35;7.55;;;6.10;99.90;;;;;;4989060;28;20034;-79
2021/03/01 05:48:20;;;;;;;18.98;8.05;;;6.00;99.90;;;;;;4983189;28;20113;-79
2021/03/01 05:50:52;;;;;;;19.83;7.47;;;6.00;99.90;;;;;;4988179;28;20029;-78
2021/03/01 05:53:20;;;;;;;18.13;8.00;;;6.00;99.90;;;;;;4970829;28;20049;-79
2021/03/01 05:55:47;;;;;;;16.10;7.90;;;6.00;99.90;;;;;;4994548;28;20387;-79
2021/03/01 05:58:13;;;;;;;26.08;7.95;;;5.90;99.90;;;;;;4988108;28;20495;-79
2021/03/01 06:00:39;;;;;;;17.55;8.80;;;6.10;99.90;;;;;;4992920;28;20045;-79
2021/03/01 06:03:05;;;;;;;16.13;7.68;;;6.10;99.90;;;;;;4995316;28;20136;-79
2021/03/01 06:05:31;;;;;;;29.30;8.43;;;6.10;99.90;;;;;;4990621;28;20515;-79
2021/03/01 06:07:57;;;;;;;20.17;8.20;;;6.20;99.90;;;;;;4990632;28;20030;-78
2021/03/01 06:10:22;;;;;;;18.27;8.15;;;6.20;99.90;;;;;;4987261;28;20100;-73
2021/03/01 06:12:48;;;;;;;20.27;7.80;;;6.20;99.90;;;;;;4991730;28;20053;-75
2021/03/01 06:15:14;;;;;;;21.60;8.07;;;6.10;99.90;;;;;;4987375;28;20053;-74
2021/03/01 06:17:40;;;;;;;20.05;8.23;;;6.20;99.90;;;;;;4988925;28;20039;-75
2021/03/01 06:20:08;;;;;;;23.27;8.38;;;6.10;99.90;;;;;;4990352;28;20022;-74
2021/03/01 06:22:44;;;;;;;21.85;8.38;;;6.20;99.90;;;;;;4988897;28;20030;-74
2021/03/01 06:25:17;;;;;;;21.50;8.93;;;6.20;99.90;;;;;;4985637;28;20039;-74
2021/03/01 06:27:54;;;;;;;23.02;8.82;;;6.20;99.90;;;;;;4993172;28;20400;-75
2021/03/01 06:30:25;;;;;;;19.60;8.20;;;6.10;99.90;;;;;;4985614;28;20030;-74
2021/03/01 06:33:20;;;;;;;;;;;6.20;99.90;;;;;;4985254;28;20030;-74
2021/03/01 06:35:50;;;;;;;15.43;8.15;;;6.20;99.90;;;;;;4971121;28;19941;-75
2021/03/01 06:38:34;;;;;;;19.55;8.55;;;6.20;99.90;;;;;;4989139;28;20440;-74
2021/03/01 06:41:20;;;;;;;19.40;8.15;;;6.30;99.90;;;;;;4987629;28;20173;-75
2021/03/01 06:43:53;;;;;;;19.15;7.75;;;6.30;99.90;;;;;;4991324;28;20503;-74
2021/03/01 06:46:19;;;;;;;20.20;8.27;;;6.20;99.90;;;;;;4988291;28;20117;-75
2021/03/01 06:48:44;;;;;;;23.77;8.77;;;6.40;99.90;;;;;;4991226;28;20473;-74
2021/03/01 06:51:10;;;;;;;22.17;8.50;;;6.30;99.90;;;;;;4996170;28;20041;-74
2021/03/01 06:53:37;;;;;;;21.10;9.05;;;6.40;99.90;;;;;;4994547;28;20101;-74
2021/03/01 06:56:16;;;;;;;17.25;7.13;;;6.40;99.90;;;;;;4988649;28;20070;-76
2021/03/01 06:58:46;;;;;;;18.00;8.15;;;6.40;99.90;;;;;;4989485;28;20033;-77
2021/03/01 07:01:18;;;;;;;22.52;8.38;;;6.40;99.90;;;;;;4997943;28;20041;-77
2021/03/01 07:03:44;;;;;;;;;;;6.50;99.90;;;;;;4987553;28;20053;-77
2021/03/01 07:06:39;;;;;;;23.23;7.95;;;6.60;99.90;;;;;;4995942;28;19945;-77
2021/03/01 07:09:17;;;;;;;17.85;7.72;;;6.60;99.90;;;;;;4993210;28;20113;-78
2021/03/01 07:11:43;;;;;;;18.30;7.90;;;6.60;99.90;;;;;;4992670;28;20373;-74
2021/03/01 07:14:14;;;;;;;30.75;9.23;;;6.60;99.90;;;;;;4992287;28;20028;-79
2021/03/01 07:16:48;;;;;;;19.58;8.10;;;6.70;99.90;;;;;;4976001;28;20026;-80
2021/03/01 07:19:17;;;;;;;19.58;7.88;;;6.70;99.90;;;;;;4995782;28;20038;-78
2021/03/01 07:21:48;;;;;;;21.45;8.13;;;6.80;99.90;;;;;;4990026;28;20026;-82
2021/03/01 07:24:22;;;;;;;18.50;8.13;;;6.80;99.90;;;;;;4993406;28;20113;-75
2021/03/01 07:26:50;;;;;;;19.75;8.43;;;6.70;99.90;;;;;;4990049;28;20101;-76
2021/03/01 07:29:17;;;;;;;19.80;8.32;;;6.80;99.90;;;;;;4992598;28;20022;-73
2021/03/01 07:32:00;;;;;;;21.50;8.57;;;6.70;99.90;;;;;;4992072;28;20053;-75
2021/03/01 07:34:25;;;;;;;18.83;8.20;;;6.80;99.90;;;;;;4989725;28;20026;-77
2021/03/01 07:36:55;;;;;;;17.95;8.85;;;6.80;99.90;;;;;;4989623;28;20097;-77
2021/03/01 07:39:21;;;;;;;17.05;8.45;;;6.90;99.90;;;;;;4990526;28;20746;-76
2021/03/01 07:41:48;;;;;;;20.15;8.60;;;6.80;99.90;;;;;;4991255;28;20113;-74
2021/03/01 07:44:15;;;;;;;23.23;9.20;;;6.90;99.90;;;;;;4993181;28;20407;-74
2021/03/01 07:46:49;;;;;;;17.15;8.32;;;6.90;99.90;;;;;;4990940;28;20050;-75
2021/03/01 07:49:34;;;;;;;18.77;8.93;;;6.90;99.90;;;;;;4989139;28;20038;-74
2021/03/01 07:51:59;;;;;;;23.40;9.52;;;6.90;99.90;;;;;;4989981;28;20038;-73
2021/03/01 07:54:51;;;;;;;15.75;7.82;;;7.10;99.90;;;;;;4988034;28;20025;-74
2021/03/01 07:57:17;;;;;;;;;;;7.30;99.90;;;;;;4985946;28;20038;-72
2021/03/01 07:59:42;;;;;;;20.67;9.20;;;7.30;99.90;;;;;;4977006;28;19922;-71
2021/03/01 08:02:31;;;;;;;16.92;7.78;;;7.30;99.90;;;;;;4983630;28;20125;-73
2021/03/01 08:04:58;;;;;;;22.58;8.52;;;7.40;99.90;;;;;;4988624;28;20034;-71
2021/03/01 08:07:41;;;;;;;15.45;7.70;;;7.30;99.90;;;;;;4988283;28;20117;-72
2021/03/01 08:10:11;;;;;;;19.48;8.63;;;7.30;99.90;;;;;;4987654;28;20022;-73
2021/03/01 08:12:39;;;;;;;21.60;8.65;;;7.30;99.90;;;;;;4986669;28;20030;-73
2021/03/01 08:15:05;;;;;;;21.90;8.60;;;7.30;99.90;;;;;;4986619;28;20037;-73
2021/03/01 08:17:33;;;;;;;20.23;8.13;;;7.40;99.90;;;;;;4987561;28;20045;-72
2021/03/01 08:20:20;;;;;;;17.20;7.78;;;7.40;99.90;;;;;;4987466;28;20061;-72
2021/03/01 08:23:04;;;;;;;15.05;7.35;;;7.50;99.90;;;;;;4987935;28;20076;-72
2021/03/01 08:25:45;;;;;;;24.55;8.57;;;7.50;99.90;;;;;;4988637;28;20136;-72
2021/03/01 08:28:22;;;;;;;18.63;8.70;;;7.60;99.90;;;;;;4984923;28;20026;-71
2021/03/01 08:30:54;;;;;;;16.67;7.45;;;7.70;99.90;;;;;;4988027;28;20122;-72
2021/03/01 08:33:22;;;;;;;14.60;7.20;;;7.60;99.90;;;;;;4988093;28;20023;-72
2021/03/01 08:35:50;;;;;;;14.80;7.93;;;7.60;99.90;;;;;;4985831;28;20034;-71
2021/03/01 08:38:37;;;;;;;20.02;7.97;;;7.60;99.90;;;;;;4988509;28;20034;-73
2021/03/01 08:41:03;;;;;;;17.30;7.15;;;7.60;99.90;;;;;;4972290;28;20050;-72
2021/03/01 08:43:35;;;;;;;20.27;7.57;;;7.70;99.90;;;;;;4986532;28;20039;-73
2021/03/01 08:46:01;;;;;;;15.80;7.80;;;7.60;99.90;;;;;;4983763;28;20082;-73
2021/03/01 08:48:26;;;;;;;14.68;6.78;;;7.60;99.90;;;;;;4987504;28;20050;-73
2021/03/01 08:50:53;;;;;;;16.65;7.40;;;7.50;99.90;;;;;;4985599;28;20044;-72
2021/03/01 08:53:25;;;;;;;17.15;6.82;;;7.60;99.90;;;;;;4973194;28;20043;-72
2021/03/01 08:55:51;;;;;;;14.38;7.00;;;7.60;99.90;;;;;;4955220;28;20027;-72
2021/03/01 08:58:18;;;;;;;14.85;6.85;;;7.60;99.90;;;;;;4967350;28;20035;-71
2021/03/01 09:00:58;;;;;;;15.10;6.75;;;7.70;99.90;;;;;;4964439;28;20136;-72
2021/03/01 09:03:33;;;;;;;17.15;7.75;;;7.80;99.90;;;;;;4968392;28;20068;-72
2021/03/01 09:06:10;;;;;;;18.23;7.57;;;7.80;99.90;;;;;;4963715;28;20468;-71
2021/03/01 09:08:50;;;;;;;13.63;6.57;;;7.80;99.90;;;;;;4966989;28;20023;-80
2021/03/01 09:11:20;;;;;;;16.35;8.00;;;7.80;99.90;;;;;;4972693;28;20026;-76
2021/03/01 09:13:48;;;;;;;21.00;7.70;;;7.70;99.90;;;;;;4962236;28;20114;-76
2021/03/01 09:16:23;;;;;;;22.10;7.80;;;7.60;99.90;;;;;;4969198;28;20042;-76
2021/03/01 09:18:49;;;;;;;16.75;7.97;;;7.60;99.90;;;;;;4965856;28;20028;-77
2021/03/01 09:21:17;;;;;;;24.75;9.68;;;7.80;99.90;;;;;;4972894;28;20039;-76
2021/03/01 09:23:49;;;;;;;15.95;8.38;;;7.90;99.90;;;;;;4965935;28;20035;-76
2021/03/01 09:26:19;;;;;;;19.83;7.75;;;7.90;99.90;;;;;;4969802;28;20041;-85
2021/03/01 09:28:45;;;;;;;17.98;6.85;;;7.90;99.90;;;;;;4972100;28;20054;-73
2021/03/01 09:31:12;;;;;;;17.38;7.47;;;7.90;99.90;;;;;;4950738;28;20018;-73
2021/03/01 09:33:40;;;;;;;19.05;8.30;;;7.90;99.90;;;;;;4974340;28;20042;-74
2021/03/01 09:36:06;;;;;;;21.38;8.23;;;8.00;99.90;;;;;;4951981;28;20039;-74
2021/03/01 09:38:33;;;;;;;18.73;8.15;;;8.00;99.90;;;;;;4971772;28;20058;-73
2021/03/01 09:41:10;;;;;;;15.68;7.57;;;8.10;99.90;;;;;;4972226;28;20470;-73
2021/03/01 09:43:37;;;;;;;19.05;7.43;;;8.10;99.90;;;;;;4966586;28;20102;-73
2021/03/01 09:46:04;;;;;;;13.05;7.15;;;8.20;99.90;;;;;;4970508;28;20038;-73
2021/03/01 09:48:34;;;;;;;18.42;7.47;;;8.10;99.90;;;;;;4967461;28;20030;-73
2021/03/01 09:50:59;;;;;;;17.27;7.20;;;8.30;99.90;;;;;;4962872;28;20110;-73
2021/03/01 09:53:27;;;;;;;15.13;7.43;;;8.20;99.90;;;;;;4982806;28;20568;-73
2021/03/01 09:55:53;;;;;;;16.77;7.47;;;8.20;99.90;;;;;;4987673;28;20027;-73
2021/03/01 09:58:30;;;;;;;17.83;8.32;;;8.20;99.90;;;;;;4981729;28;20030;-72
2021/03/01 10:01:07;;;;;;;14.15;6.88;;;8.30;99.80;;;;;;4988909;28;20046;-72
2021/03/01 10:03:41;;;;;;;16.45;7.55;;;8.30;99.90;;;;;;4986159;28;20113;-72
2021/03/01 10:06:07;;;;;;;14.23;7.05;;;8.30;99.90;;;;;;4986399;28;20026;-73
2021/03/01 10:08:33;;;;;;;17.83;7.40;;;8.40;99.90;;;;;;4986186;28;20130;-73
2021/03/01 10:10:59;;;;;;;13.88;7.07;;;8.40;99.90;;;;;;4993612;28;20437;-73
2021/03/01 10:13:33;;;;;;;14.30;7.70;;;8.50;99.50;;;;;;4987922;28;20065;-74
2021/03/01 10:16:05;;;;;;;14.38;7.22;;;8.50;99.50;;;;;;4986889;28;20034;-75
2021/03/01 10:18:32;;;;;;;16.15;7.95;;;8.50;98.80;;;;;;4986603;28;20034;-75
2021/03/01 10:21:29;;;;;;;15.10;6.90;;;8.40;99.20;;;;;;4995384;28;20037;-75
2021/03/01 10:24:01;;;;;;;18.88;7.05;;;8.60;98.80;;;;;;4981869;28;20038;-75
2021/03/01 10:26:26;;;;;;;20.27;7.45;;;8.60;99.70;;;;;;4983638;28;20030;-75
2021/03/01 10:28:53;;;;;;;19.15;7.43;;;8.70;98.90;;;;;;4978472;28;20037;-75
2021/03/01 10:31:23;;;;;;;13.55;7.05;;;8.70;97.80;;;;;;4989479;28;20111;-75
2021/03/01 10:34:03;;;;;;;14.77;6.70;;;8.60;97.60;;;;;;4985705;28;20026;-75
2021/03/01 10:36:34;;;;;;;12.30;6.57;;;8.70;97.00;;;;;;4980661;28;20029;-75
2021/03/01 10:39:07;;;;;;;17.50;7.17;;;9.00;96.40;;;;;;4989170;28;20033;-75
2021/03/01 10:41:41;;;;;;;18.08;7.60;;;9.10;96.40;;;;;;4990970;28;20075;-75
2021/03/01 10:44:07;;;;;;;16.40;7.20;;;9.20;95.00;;;;;;4989822;28;20615;-75
2021/03/01 10:46:35;;;;;;;15.50;6.28;;;9.20;95.10;;;;;;4988708;28;20030;-74
2021/03/01 10:49:31;;;;;;;16.90;7.38;;;9.20;95.20;;;;;;4989844;28;20034;-75
2021/03/01 10:51:58;;;;;;;23.42;7.45;;;9.20;94.90;;;;;;4987212;28;20096;-75
2021/03/01 10:54:25;;;;;;;16.52;7.57;;;9.20;94.70;;;;;;4992497;28;20034;-75
2021/03/01 10:56:58;;;;;;;20.08;6.82;;;9.00;94.50;;;;;;4982379;28;20056;-75
2021/03/01 10:59:23;;;;;;;20.35;7.93;;;9.00;94.60;;;;;;4994449;28;20084;-75
2021/03/01 11:01:49;;;;;;;18.90;8.52;;;9.00;94.50;;;;;;4988595;28;20422;-74
2021/03/01 11:04:16;;;;;;;14.45;6.93;;;9.10;94.70;;;;;;4991265;28;20423;-75
2021/03/01 11:06:42;;;;;;;16.23;7.68;;;9.00;96.10;;;;;;4989319;28;20035;-74
2021/03/01 11:09:09;;;;;;;18.15;7.85;;;9.20;95.10;;;;;;4989281;28;20045;-74
2021/03/01 11:11:36;;;;;;;17.77;7.55;;;9.30;95.10;;;;;;4991356;28;20031;-74
2021/03/01 11:14:03;;;;;;;14.15;7.05;;;9.30;94.20;;;;;;4985017;28;20170;-74
2021/03/01 11:16:29;;;;;;;16.75;6.97;;;9.30;94.30;;;;;;4986589;28;20030;-75
2021/03/01 11:18:54;;;;;;;16.90;7.25;;;9.60;94.20;;;;;;4979081;28;20030;-77
2021/03/01 11:21:20;;;;;;;17.65;7.55;;;10.30;93.40;;;;;;4982222;28;20027;-75
2021/03/01 11:23:46;;;;;;;17.08;8.40;;;10.80;90.50;;;;;;4985847;28;20114;-75
2021/03/01 11:26:14;;;;;;;15.35;7.90;;;11.00;88.10;;;;;;4987483;28;20034;-76
2021/03/01 11:28:39;;;;;;;15.38;7.30;;;11.20;86.60;;;;;;4988562;28;20040;-76
2021/03/01 11:31:05;;;;;;;14.35;7.63;;;11.40;85.70;;;;;;4992731;28;20691;-76
2021/03/01 11:33:30;;;;;;;16.45;7.45;;;11.70;84.50;;;;;;4988751;28;20057;-75
2021/03/01 11:35:56;;;;;;;15.32;8.45;;;11.90;81.40;;;;;;4991285;28;20034;-75
2021/03/01 11:38:23;;;;;;;21.90;9.45;;;12.20;80.50;;;;;;4990224;28;20074;-75
2021/03/01 11:40:53;;;;;;;22.15;10.27;;;12.30;80.20;;;;;;4988352;28;20029;-74
2021/03/01 11:43:19;;;;;;;17.88;9.32;;;12.60;76.60;;;;;;4986831;28;20062;-74
2021/03/01 11:45:45;;;;;;;16.17;9.50;;;12.80;75.80;;;;;;4982254;28;20408;-73
2021/03/01 11:48:13;;;;;;;19.70;9.50;;;12.80;73.70;;;;;;4986280;28;20030;-74
2021/03/01 11:50:40;;;;;;;19.88;10.52;;;12.90;73.20;;;;;;4978420;28;20027;-72
2021/03/01 11:53:05;;;;;;;17.20;8.98;;;13.00;72.80;;;;;;4983466;28;20136;-72
2021/03/01 11:55:31;;;;;;;17.90;8.95;;;13.20;72.90;;;;;;4986023;28;20446;-73
2021/03/01 11:57:57;;;;;;;18.63;9.65;;;13.40;71.50;;;;;;4987641;28;20026;-73
2021/03/01 12:00:23;;;;;;;17.95;9.68;;;13.50;70.80;;;;;;4987113;28;20080;-73
2021/03/01 12:02:48;;;;;;;17.05;9.77;;;13.90;67.00;;;;;;4987314;28;20030;-73
2021/03/01 12:05:14;;;;;;;17.55;9.32;;;14.10;66.40;;;;;;4986369;28;20188;-73
2021/03/01 12:07:40;;;;;;;18.65;10.23;;;14.40;66.10;;;;;;4983168;28;20499;-73
2021/03/01 12:10:06;;;;;;;17.02;9.48;;;14.30;65.40;;;;;;4987307;28;20125;-73
2021/03/01 12:12:32;;;;;;;18.40;10.20;;;14.50;63.30;;;;;;4985939;28;20501;-73
2021/03/01 12:14:57;;;;;;;14.20;8.55;;;14.10;66.30;;;;;;4985731;28;20029;-74
2021/03/01 12:17:23;;;;;;;15.95;9.30;;;14.60;62.50;;;;;;4987901;28;20026;-73
2021/03/01 12:19:48;;;;;;;15.25;8.90;;;14.80;62.00;;;;;;4986787;28;20022;-73
2021/03/01 12:22:14;;;;;;;15.05;8.80;;;14.90;61.30;;;;;;4983931;28;20034;-73
2021/03/01 12:24:39;;;;;;;18.83;8.90;;;15.10;61.20;;;;;;4985545;28;20142;-73
2021/03/01 12:27:05;;;;;;;13.63;8.98;;;15.00;61.50;;;;;;4985053;28;20108;-72
2021/03/01 12:29:30;;;;;;;14.88;8.38;;;15.60;61.60;;;;;;4985983;28;20485;-73
2021/03/01 12:31:56;;;;;;;17.35;9.48;;;15.60;61.10;;;;;;4984518;28;20042;-73
2021/03/01 12:34:22;;;;;;;14.07;8.65;;;16.20;58.10;;;;;;4984236;28;20026;-73
2021/03/01 12:36:47;;;;;;;13.48;7.78;;;16.10;58.90;;;;;;4983281;28;20057;-73
2021/03/01 12:39:13;;;;;;;12.80;7.68;;;16.30;57.90;;;;;;4989682;28;20026;-76
2021/03/01 12:41:38;;;;;;;11.50;7.75;;;16.60;56.50;;;;;;4990231;28;20603;-76
2021/03/01 12:44:04;;;;;;;16.30;8.90;;;16.50;56.50;;;;;;4981976;28;20019;-76
2021/03/01 12:46:29;;;;;;;15.30;8.68;;;16.40;56.70;;;;;;4982727;28;20038;-75
2021/03/01 12:48:55;;;;;;;16.63;7.70;;;16.40;55.20;;;;;;4988933;28;20027;-75
2021/03/01 12:51:20;;;;;;;14.05;7.90;;;16.30;56.30;;;;;;4988515;28;20109;-76
2021/03/01 12:53:46;;;;;;;13.93;8.52;;;16.50;56.70;;;;;;4980671;28;20171;-76
2021/03/01 12:56:12;;;;;;;15.98;8.32;;;16.20;57.00;;;;;;4985451;28;20030;-76